sensor_id;sensor_type;location;lat;lon;timestamp;P1;durP1;ratioP1;P2;durP2;ratioP2
21326;SDS011;10822;51.532;6.770;2023-06-10T00:01:49;7.25;;;5.30;;
21326;SDS011;10822;51.532;6.770;2023-06-10T00:04:15;7.05;;;5.00;;
21326;SDS011;10822;51.532;6.770;2023-06-10T00:06:43;5.65;;;4.95;;
21326;SDS011;10822;51.532;6.770;2023-06-10T00:09:09;5.43;;;4.65;;
21326;SDS011;10822;51.532;6.770;2023-06-10T00:11:35;7.38;;;5.18;;
21326;SDS011;10822;51.532;6.770;2023-06-10T00:14:02;5.68;;;5.07;;
21326;SDS011;10822;51.532;6.770;2023-06-10T00:16:28;5.63;;;4.80;;
21326;SDS011;10822;51.532;6.770;2023-06-10T00:18:54;6.05;;;5.10;;
21326;SDS011;10822;51.532;6.770;2023-06-10T00:21:29;6.80;;;5.07;;
21326;SDS011;10822;51.532;6.770;2023-06-10T00:24:02;7.20;;;5.20;;
21326;SDS011;10822;51.532;6.770;2023-06-10T00:26:28;6.40;;;5.05;;
21326;SDS011;10822;51.532;6.770;2023-06-10T00:28:54;5.88;;;4.93;;
21326;SDS011;10822;51.532;6.770;2023-06-10T00:31:20;5.55;;;5.00;;
21326;SDS011;10822;51.532;6.770;2023-06-10T00:33:46;6.38;;;4.78;;
21326;SDS011;10822;51.532;6.770;2023-06-10T00:36:11;6.18;;;4.80;;
21326;SDS011;10822;51.532;6.770;2023-06-10T00:38:37;5.63;;;4.72;;
21326;SDS011;10822;51.532;6.770;2023-06-10T00:41:05;6.13;;;5.20;;
21326;SDS011;10822;51.532;6.770;2023-06-10T00:43:31;7.30;;;5.20;;
21326;SDS011;10822;51.532;6.770;2023-06-10T00:45:57;7.38;;;5.22;;
21326;SDS011;10822;51.532;6.770;2023-06-10T00:48:23;7.97;;;5.30;;
21326;SDS011;10822;51.532;6.770;2023-06-10T00:50:50;8.38;;;5.22;;
21326;SDS011;10822;51.532;6.770;2023-06-10T00:53:16;6.50;;;5.47;;
21326;SDS011;10822;51.532;6.770;2023-06-10T00:55:42;8.02;;;5.63;;
21326;SDS011;10822;51.532;6.770;2023-06-10T00:58:08;6.53;;;5.57;;
21326;SDS011;10822;51.532;6.770;2023-06-10T01:00:34;6.20;;;5.40;;
21326;SDS011;10822;51.532;6.770;2023-06-10T01:03:00;7.03;;;5.57;;
21326;SDS011;10822;51.532;6.770;2023-06-10T01:05:26;6.95;;;5.72;;
21326;SDS011;10822;51.532;6.770;2023-06-10T01:15:21;7.72;;;6.47;;
21326;SDS011;10822;51.532;6.770;2023-06-10T01:20:23;7.40;;;5.60;;
21326;SDS011;10822;51.532;6.770;2023-06-10T01:22:51;6.43;;;5.60;;
21326;SDS011;10822;51.532;6.770;2023-06-10T01:25:19;8.43;;;5.70;;
21326;SDS011;10822;51.532;6.770;2023-06-10T01:28:02;6.07;;;5.43;;
21326;SDS011;10822;51.532;6.770;2023-06-10T01:30:30;7.30;;;6.00;;
21326;SDS011;10822;51.532;6.770;2023-06-10T01:32:58;7.88;;;6.10;;
21326;SDS011;10822;51.532;6.770;2023-06-10T01:35:25;9.63;;;6.25;;
21326;SDS011;10822;51.532;6.770;2023-06-10T01:37:53;7.07;;;5.78;;
21326;SDS011;10822;51.532;6.770;2023-06-10T01:40:20;7.85;;;6.35;;
21326;SDS011;10822;51.532;6.770;2023-06-10T01:42:46;7.28;;;6.10;;
21326;SDS011;10822;51.532;6.770;2023-06-10T01:45:12;7.30;;;6.40;;
21326;SDS011;10822;51.532;6.770;2023-06-10T01:47:38;7.63;;;6.10;;
21326;SDS011;10822;51.532;6.770;2023-06-10T01:50:04;10.38;;;6.70;;
21326;SDS011;10822;51.532;6.770;2023-06-10T01:52:30;9.27;;;6.50;;
21326;SDS011;10822;51.532;6.770;2023-06-10T01:54:56;9.73;;;6.70;;
21326;SDS011;10822;51.532;6.770;2023-06-10T01:57:22;7.57;;;6.70;;
21326;SDS011;10822;51.532;6.770;2023-06-10T01:59:48;7.68;;;6.85;;
21326;SDS011;10822;51.532;6.770;2023-06-10T02:02:14;8.40;;;6.90;;
21326;SDS011;10822;51.532;6.770;2023-06-10T02:04:40;7.50;;;6.65;;
21326;SDS011;10822;51.532;6.770;2023-06-10T02:07:06;9.40;;;7.10;;
21326;SDS011;10822;51.532;6.770;2023-06-10T02:09:32;9.35;;;7.47;;
21326;SDS011;10822;51.532;6.770;2023-06-10T02:12:01;9.77;;;7.07;;
21326;SDS011;10822;51.532;6.770;2023-06-10T02:14:26;9.77;;;7.70;;
21326;SDS011;10822;51.532;6.770;2023-06-10T02:16:52;8.70;;;7.43;;
21326;SDS011;10822;51.532;6.770;2023-06-10T02:19:21;10.77;;;7.25;;
21326;SDS011;10822;51.532;6.770;2023-06-10T02:21:47;9.73;;;7.70;;
21326;SDS011;10822;51.532;6.770;2023-06-10T02:24:13;10.15;;;7.65;;
21326;SDS011;10822;51.532;6.770;2023-06-10T02:26:40;8.80;;;7.35;;
21326;SDS011;10822;51.532;6.770;2023-06-10T02:29:06;8.57;;;7.65;;
21326;SDS011;10822;51.532;6.770;2023-06-10T02:31:32;9.02;;;7.45;;
21326;SDS011;10822;51.532;6.770;2023-06-10T02:34:00;10.52;;;7.80;;
21326;SDS011;10822;51.532;6.770;2023-06-10T02:36:26;12.15;;;7.65;;
21326;SDS011;10822;51.532;6.770;2023-06-10T02:38:53;9.93;;;8.02;;
21326;SDS011;10822;51.532;6.770;2023-06-10T02:41:19;8.95;;;7.90;;
21326;SDS011;10822;51.532;6.770;2023-06-10T02:43:46;9.00;;;7.28;;
21326;SDS011;10822;51.532;6.770;2023-06-10T02:46:12;8.90;;;7.40;;
21326;SDS011;10822;51.532;6.770;2023-06-10T02:48:42;8.18;;;7.32;;
21326;SDS011;10822;51.532;6.770;2023-06-10T02:51:11;11.40;;;7.60;;
21326;SDS011;10822;51.532;6.770;2023-06-10T02:53:37;8.35;;;7.55;;
21326;SDS011;10822;51.532;6.770;2023-06-10T02:56:03;9.20;;;7.72;;
21326;SDS011;10822;51.532;6.770;2023-06-10T02:58:29;8.88;;;7.00;;
21326;SDS011;10822;51.532;6.770;2023-06-10T03:00:56;11.43;;;8.13;;
21326;SDS011;10822;51.532;6.770;2023-06-10T03:03:23;8.27;;;7.35;;
21326;SDS011;10822;51.532;6.770;2023-06-10T03:05:50;9.45;;;8.05;;
21326;SDS011;10822;51.532;6.770;2023-06-10T03:08:16;8.65;;;7.72;;
21326;SDS011;10822;51.532;6.770;2023-06-10T03:10:42;8.70;;;7.65;;
21326;SDS011;10822;51.532;6.770;2023-06-10T03:13:08;8.38;;;7.50;;
21326;SDS011;10822;51.532;6.770;2023-06-10T03:15:35;11.15;;;7.55;;
21326;SDS011;10822;51.532;6.770;2023-06-10T03:18:01;9.32;;;7.80;;
21326;SDS011;10822;51.532;6.770;2023-06-10T03:20:27;9.35;;;7.72;;
21326;SDS011;10822;51.532;6.770;2023-06-10T03:22:54;8.60;;;7.78;;
21326;SDS011;10822;51.532;6.770;2023-06-10T03:25:20;10.35;;;8.60;;
21326;SDS011;10822;51.532;6.770;2023-06-10T03:27:46;10.40;;;8.13;;
21326;SDS011;10822;51.532;6.770;2023-06-10T03:30:13;9.27;;;7.88;;
21326;SDS011;10822;51.532;6.770;2023-06-10T03:32:39;10.35;;;8.40;;
21326;SDS011;10822;51.532;6.770;2023-06-10T03:35:06;11.05;;;7.90;;
21326;SDS011;10822;51.532;6.770;2023-06-10T03:37:32;9.05;;;7.68;;
21326;SDS011;10822;51.532;6.770;2023-06-10T03:39:58;9.27;;;7.45;;
21326;SDS011;10822;51.532;6.770;2023-06-10T03:42:24;8.77;;;7.55;;
21326;SDS011;10822;51.532;6.770;2023-06-10T03:44:50;9.30;;;7.85;;
21326;SDS011;10822;51.532;6.770;2023-06-10T03:47:16;10.15;;;7.82;;
21326;SDS011;10822;51.532;6.770;2023-06-10T03:49:42;10.45;;;7.60;;
21326;SDS011;10822;51.532;6.770;2023-06-10T03:52:08;9.40;;;7.18;;
21326;SDS011;10822;51.532;6.770;2023-06-10T03:54:34;11.77;;;7.50;;
21326;SDS011;10822;51.532;6.770;2023-06-10T03:57:00;8.07;;;6.97;;
21326;SDS011;10822;51.532;6.770;2023-06-10T03:59:28;9.07;;;7.25;;
21326;SDS011;10822;51.532;6.770;2023-06-10T04:01:54;11.43;;;7.60;;
21326;SDS011;10822;51.532;6.770;2023-06-10T04:04:20;9.82;;;7.15;;
21326;SDS011;10822;51.532;6.770;2023-06-10T04:06:46;8.68;;;6.60;;
21326;SDS011;10822;51.532;6.770;2023-06-10T04:09:13;7.15;;;6.45;;
21326;SDS011;10822;51.532;6.770;2023-06-10T04:11:39;8.68;;;6.80;;
21326;SDS011;10822;51.532;6.770;2023-06-10T04:14:05;9.32;;;6.85;;
21326;SDS011;10822;51.532;6.770;2023-06-10T04:16:31;8.70;;;6.63;;
21326;SDS011;10822;51.532;6.770;2023-06-10T04:18:57;8.00;;;6.97;;
21326;SDS011;10822;51.532;6.770;2023-06-10T04:21:23;9.52;;;7.07;;
21326;SDS011;10822;51.532;6.770;2023-06-10T04:23:49;9.05;;;6.82;;
21326;SDS011;10822;51.532;6.770;2023-06-10T04:26:16;7.22;;;6.40;;
21326;SDS011;10822;51.532;6.770;2023-06-10T04:28:44;10.15;;;7.50;;
21326;SDS011;10822;51.532;6.770;2023-06-10T04:31:10;7.60;;;6.75;;
21326;SDS011;10822;51.532;6.770;2023-06-10T04:33:36;8.45;;;6.82;;
21326;SDS011;10822;51.532;6.770;2023-06-10T04:36:02;8.80;;;6.82;;
21326;SDS011;10822;51.532;6.770;2023-06-10T04:38:28;9.10;;;5.97;;
21326;SDS011;10822;51.532;6.770;2023-06-10T04:40:55;10.70;;;7.35;;
21326;SDS011;10822;51.532;6.770;2023-06-10T04:43:21;10.02;;;7.15;;
21326;SDS011;10822;51.532;6.770;2023-06-10T04:45:47;10.90;;;7.88;;
21326;SDS011;10822;51.532;6.770;2023-06-10T04:48:13;10.43;;;7.20;;
21326;SDS011;10822;51.532;6.770;2023-06-10T04:50:40;9.93;;;6.45;;
21326;SDS011;10822;51.532;6.770;2023-06-10T04:53:06;9.00;;;6.75;;
21326;SDS011;10822;51.532;6.770;2023-06-10T04:55:32;10.52;;;6.22;;
21326;SDS011;10822;51.532;6.770;2023-06-10T04:57:59;11.07;;;6.55;;
21326;SDS011;10822;51.532;6.770;2023-06-10T05:00:25;8.32;;;6.20;;
21326;SDS011;10822;51.532;6.770;2023-06-10T05:02:51;8.27;;;6.85;;
21326;SDS011;10822;51.532;6.770;2023-06-10T05:05:17;10.07;;;7.53;;
21326;SDS011;10822;51.532;6.770;2023-06-10T05:07:43;9.18;;;6.10;;
21326;SDS011;10822;51.532;6.770;2023-06-10T05:10:09;6.75;;;5.50;;
21326;SDS011;10822;51.532;6.770;2023-06-10T05:12:37;9.07;;;5.50;;
21326;SDS011;10822;51.532;6.770;2023-06-10T05:15:03;9.63;;;6.18;;
21326;SDS011;10822;51.532;6.770;2023-06-10T05:17:29;7.38;;;5.10;;
21326;SDS011;10822;51.532;6.770;2023-06-10T05:19:55;7.28;;;4.97;;
21326;SDS011;10822;51.532;6.770;2023-06-10T05:22:21;6.53;;;5.50;;
21326;SDS011;10822;51.532;6.770;2023-06-10T05:24:49;7.38;;;5.65;;
21326;SDS011;10822;51.532;6.770;2023-06-10T05:27:16;8.93;;;5.53;;
21326;SDS011;10822;51.532;6.770;2023-06-10T05:29:42;8.35;;;5.93;;
21326;SDS011;10822;51.532;6.770;2023-06-10T05:32:08;7.00;;;5.32;;
21326;SDS011;10822;51.532;6.770;2023-06-10T05:34:34;10.18;;;5.53;;
21326;SDS011;10822;51.532;6.770;2023-06-10T05:37:00;7.00;;;5.25;;
21326;SDS011;10822;51.532;6.770;2023-06-10T05:39:26;6.82;;;4.78;;
21326;SDS011;10822;51.532;6.770;2023-06-10T05:41:52;7.63;;;5.40;;
21326;SDS011;10822;51.532;6.770;2023-06-10T05:44:18;9.27;;;5.50;;
21326;SDS011;10822;51.532;6.770;2023-06-10T05:46:44;7.50;;;5.13;;
21326;SDS011;10822;51.532;6.770;2023-06-10T05:49:10;5.97;;;4.72;;
21326;SDS011;10822;51.532;6.770;2023-06-10T05:51:35;6.40;;;4.82;;
21326;SDS011;10822;51.532;6.770;2023-06-10T05:54:02;5.47;;;4.45;;
21326;SDS011;10822;51.532;6.770;2023-06-10T05:56:28;6.05;;;4.60;;
21326;SDS011;10822;51.532;6.770;2023-06-10T05:58:54;7.07;;;4.88;;
21326;SDS011;10822;51.532;6.770;2023-06-10T06:01:20;5.63;;;4.63;;
21326;SDS011;10822;51.532;6.770;2023-06-10T06:03:46;7.35;;;4.40;;
21326;SDS011;10822;51.532;6.770;2023-06-10T06:06:12;4.82;;;4.18;;
21326;SDS011;10822;51.532;6.770;2023-06-10T06:08:38;7.03;;;4.70;;
21326;SDS011;10822;51.532;6.770;2023-06-10T06:11:04;4.80;;;4.00;;
21326;SDS011;10822;51.532;6.770;2023-06-10T06:13:30;5.47;;;4.13;;
21326;SDS011;10822;51.532;6.770;2023-06-10T06:15:56;6.55;;;4.22;;
21326;SDS011;10822;51.532;6.770;2023-06-10T06:18:22;5.03;;;4.10;;
21326;SDS011;10822;51.532;6.770;2023-06-10T06:20:48;5.50;;;3.97;;
21326;SDS011;10822;51.532;6.770;2023-06-10T06:23:14;8.30;;;3.90;;
21326;SDS011;10822;51.532;6.770;2023-06-10T06:25:40;4.82;;;4.32;;
21326;SDS011;10822;51.532;6.770;2023-06-10T06:28:06;6.40;;;4.05;;
21326;SDS011;10822;51.532;6.770;2023-06-10T06:30:34;5.32;;;4.00;;
21326;SDS011;10822;51.532;6.770;2023-06-10T06:33:00;7.00;;;4.15;;
21326;SDS011;10822;51.532;6.770;2023-06-10T06:35:26;9.15;;;4.20;;
21326;SDS011;10822;51.532;6.770;2023-06-10T06:37:52;4.65;;;3.85;;
21326;SDS011;10822;51.532;6.770;2023-06-10T06:40:18;8.27;;;4.82;;
21326;SDS011;10822;51.532;6.770;2023-06-10T06:42:44;5.88;;;4.03;;
21326;SDS011;10822;51.532;6.770;2023-06-10T06:45:10;6.00;;;3.88;;
21326;SDS011;10822;51.532;6.770;2023-06-10T06:47:36;6.55;;;3.50;;
21326;SDS011;10822;51.532;6.770;2023-06-10T06:50:02;4.95;;;3.90;;
21326;SDS011;10822;51.532;6.770;2023-06-10T06:52:28;5.72;;;4.10;;
21326;SDS011;10822;51.532;6.770;2023-06-10T06:54:54;6.00;;;3.85;;
21326;SDS011;10822;51.532;6.770;2023-06-10T06:57:20;7.68;;;4.53;;
21326;SDS011;10822;51.532;6.770;2023-06-10T06:59:48;6.03;;;3.72;;
21326;SDS011;10822;51.532;6.770;2023-06-10T07:02:14;5.68;;;3.88;;
21326;SDS011;10822;51.532;6.770;2023-06-10T07:04:40;7.30;;;4.00;;
21326;SDS011;10822;51.532;6.770;2023-06-10T07:07:07;4.93;;;3.70;;
21326;SDS011;10822;51.532;6.770;2023-06-10T07:09:34;7.55;;;4.45;;
21326;SDS011;10822;51.532;6.770;2023-06-10T07:12:00;6.40;;;4.45;;
21326;SDS011;10822;51.532;6.770;2023-06-10T07:14:26;7.43;;;4.60;;
21326;SDS011;10822;51.532;6.770;2023-06-10T07:16:52;6.55;;;4.57;;
21326;SDS011;10822;51.532;6.770;2023-06-10T07:19:18;7.38;;;4.10;;
21326;SDS011;10822;51.532;6.770;2023-06-10T07:21:44;6.10;;;3.95;;
21326;SDS011;10822;51.532;6.770;2023-06-10T07:24:10;5.97;;;3.80;;
21326;SDS011;10822;51.532;6.770;2023-06-10T07:26:36;5.43;;;3.60;;
21326;SDS011;10822;51.532;6.770;2023-06-10T07:29:02;5.35;;;3.83;;
21326;SDS011;10822;51.532;6.770;2023-06-10T07:31:27;6.15;;;4.15;;
21326;SDS011;10822;51.532;6.770;2023-06-10T07:33:53;6.47;;;3.95;;
21326;SDS011;10822;51.532;6.770;2023-06-10T07:36:20;6.32;;;4.15;;
21326;SDS011;10822;51.532;6.770;2023-06-10T07:38:45;5.57;;;3.80;;
21326;SDS011;10822;51.532;6.770;2023-06-10T07:41:11;6.18;;;3.80;;
21326;SDS011;10822;51.532;6.770;2023-06-10T07:43:38;5.00;;;4.30;;
21326;SDS011;10822;51.532;6.770;2023-06-10T07:46:04;5.68;;;3.72;;
21326;SDS011;10822;51.532;6.770;2023-06-10T07:48:30;5.80;;;4.20;;
21326;SDS011;10822;51.532;6.770;2023-06-10T07:50:56;4.50;;;3.60;;
21326;SDS011;10822;51.532;6.770;2023-06-10T07:53:22;6.40;;;3.97;;
21326;SDS011;10822;51.532;6.770;2023-06-10T07:55:48;5.43;;;4.10;;
21326;SDS011;10822;51.532;6.770;2023-06-10T07:58:14;5.03;;;4.03;;
21326;SDS011;10822;51.532;6.770;2023-06-10T08:00:40;4.60;;;3.47;;
21326;SDS011;10822;51.532;6.770;2023-06-10T08:03:07;7.00;;;4.05;;
21326;SDS011;10822;51.532;6.770;2023-06-10T08:05:33;6.18;;;3.55;;
21326;SDS011;10822;51.532;6.770;2023-06-10T08:07:59;4.45;;;3.38;;
21326;SDS011;10822;51.532;6.770;2023-06-10T08:10:25;5.53;;;3.88;;
21326;SDS011;10822;51.532;6.770;2023-06-10T08:12:57;7.40;;;4.00;;
21326;SDS011;10822;51.532;6.770;2023-06-10T08:15:23;7.65;;;3.58;;
21326;SDS011;10822;51.532;6.770;2023-06-10T08:17:49;6.55;;;3.97;;
21326;SDS011;10822;51.532;6.770;2023-06-10T08:20:15;6.85;;;4.20;;
21326;SDS011;10822;51.532;6.770;2023-06-10T08:22:41;4.88;;;3.72;;
21326;SDS011;10822;51.532;6.770;2023-06-10T08:25:07;6.47;;;3.80;;
21326;SDS011;10822;51.532;6.770;2023-06-10T08:27:33;6.00;;;3.80;;
21326;SDS011;10822;51.532;6.770;2023-06-10T08:30:00;5.07;;;3.70;;
21326;SDS011;10822;51.532;6.770;2023-06-10T08:32:26;4.30;;;3.90;;
21326;SDS011;10822;51.532;6.770;2023-06-10T08:34:52;5.32;;;3.95;;
21326;SDS011;10822;51.532;6.770;2023-06-10T08:37:17;6.40;;;4.18;;
21326;SDS011;10822;51.532;6.770;2023-06-10T08:39:43;5.70;;;3.60;;
21326;SDS011;10822;51.532;6.770;2023-06-10T08:42:29;5.85;;;3.92;;
21326;SDS011;10822;51.532;6.770;2023-06-10T08:44:58;5.45;;;3.65;;
21326;SDS011;10822;51.532;6.770;2023-06-10T08:47:27;10.45;;;4.20;;
21326;SDS011;10822;51.532;6.770;2023-06-10T08:49:56;5.30;;;3.72;;
21326;SDS011;10822;51.532;6.770;2023-06-10T08:52:26;5.03;;;3.78;;
21326;SDS011;10822;51.532;6.770;2023-06-10T08:54:52;5.38;;;4.38;;
21326;SDS011;10822;51.532;6.770;2023-06-10T08:57:20;5.07;;;3.85;;
21326;SDS011;10822;51.532;6.770;2023-06-10T08:59:46;4.10;;;3.70;;
21326;SDS011;10822;51.532;6.770;2023-06-10T09:02:13;5.43;;;3.78;;
21326;SDS011;10822;51.532;6.770;2023-06-10T09:04:40;6.63;;;4.03;;
21326;SDS011;10822;51.532;6.770;2023-06-10T09:07:07;5.15;;;3.35;;
21326;SDS011;10822;51.532;6.770;2023-06-10T09:09:33;4.72;;;3.90;;
21326;SDS011;10822;51.532;6.770;2023-06-10T09:12:00;7.53;;;4.25;;
21326;SDS011;10822;51.532;6.770;2023-06-10T09:14:26;4.93;;;3.67;;
21326;SDS011;10822;51.532;6.770;2023-06-10T09:16:52;5.60;;;4.07;;
21326;SDS011;10822;51.532;6.770;2023-06-10T09:19:21;4.78;;;4.03;;
21326;SDS011;10822;51.532;6.770;2023-06-10T09:21:50;5.25;;;4.00;;
21326;SDS011;10822;51.532;6.770;2023-06-10T09:24:16;5.40;;;3.70;;
21326;SDS011;10822;51.532;6.770;2023-06-10T09:26:42;5.40;;;3.80;;
21326;SDS011;10822;51.532;6.770;2023-06-10T09:29:09;13.45;;;4.80;;
21326;SDS011;10822;51.532;6.770;2023-06-10T09:31:37;5.60;;;3.88;;
21326;SDS011;10822;51.532;6.770;2023-06-10T09:34:13;7.63;;;4.50;;
21326;SDS011;10822;51.532;6.770;2023-06-10T09:36:40;7.93;;;4.68;;
21326;SDS011;10822;51.532;6.770;2023-06-10T09:39:13;6.28;;;4.30;;
21326;SDS011;10822;51.532;6.770;2023-06-10T09:41:40;5.57;;;4.00;;
21326;SDS011;10822;51.532;6.770;2023-06-10T09:44:24;5.95;;;4.13;;
21326;SDS011;10822;51.532;6.770;2023-06-10T09:46:51;6.18;;;4.10;;
21326;SDS011;10822;51.532;6.770;2023-06-10T09:49:18;7.60;;;5.15;;
21326;SDS011;10822;51.532;6.770;2023-06-10T09:51:53;6.18;;;4.30;;
21326;SDS011;10822;51.532;6.770;2023-06-10T09:54:19;9.55;;;4.57;;
21326;SDS011;10822;51.532;6.770;2023-06-10T09:56:49;4.85;;;4.10;;
21326;SDS011;10822;51.532;6.770;2023-06-10T09:59:15;7.43;;;5.47;;
21326;SDS011;10822;51.532;6.770;2023-06-10T10:01:41;9.52;;;4.70;;
21326;SDS011;10822;51.532;6.770;2023-06-10T10:04:07;5.20;;;4.05;;
21326;SDS011;10822;51.532;6.770;2023-06-10T10:06:33;5.18;;;4.43;;
21326;SDS011;10822;51.532;6.770;2023-06-10T10:09:00;5.32;;;4.13;;
21326;SDS011;10822;51.532;6.770;2023-06-10T10:11:26;5.03;;;3.97;;
21326;SDS011;10822;51.532;6.770;2023-06-10T10:13:52;6.63;;;4.63;;
21326;SDS011;10822;51.532;6.770;2023-06-10T10:16:19;4.95;;;3.83;;
21326;SDS011;10822;51.532;6.770;2023-06-10T10:18:47;7.38;;;4.10;;
21326;SDS011;10822;51.532;6.770;2023-06-10T10:21:15;4.47;;;3.80;;
21326;SDS011;10822;51.532;6.770;2023-06-10T10:23:48;6.50;;;4.38;;
21326;SDS011;10822;51.532;6.770;2023-06-10T10:26:18;6.20;;;4.28;;
21326;SDS011;10822;51.532;6.770;2023-06-10T10:28:48;5.55;;;4.20;;
21326;SDS011;10822;51.532;6.770;2023-06-10T10:31:18;5.18;;;4.40;;
21326;SDS011;10822;51.532;6.770;2023-06-10T10:36:10;5.07;;;4.07;;
21326;SDS011;10822;51.532;6.770;2023-06-10T10:38:36;4.70;;;4.22;;
21326;SDS011;10822;51.532;6.770;2023-06-10T10:41:02;6.40;;;4.80;;
21326;SDS011;10822;51.532;6.770;2023-06-10T10:43:30;6.97;;;4.50;;
21326;SDS011;10822;51.532;6.770;2023-06-10T10:45:59;6.18;;;4.30;;
21326;SDS011;10822;51.532;6.770;2023-06-10T10:48:25;6.05;;;4.15;;
21326;SDS011;10822;51.532;6.770;2023-06-10T10:50:57;4.63;;;4.15;;
21326;SDS011;10822;51.532;6.770;2023-06-10T10:53:24;6.90;;;4.35;;
21326;SDS011;10822;51.532;6.770;2023-06-10T10:58:25;21.27;;;15.90;;
21326;SDS011;10822;51.532;6.770;2023-06-10T11:00:51;7.13;;;5.28;;
21326;SDS011;10822;51.532;6.770;2023-06-10T11:03:17;14.55;;;10.82;;
21326;SDS011;10822;51.532;6.770;2023-06-10T11:05:47;11.13;;;7.30;;
21326;SDS011;10822;51.532;6.770;2023-06-10T11:08:14;8.52;;;6.72;;
21326;SDS011;10822;51.532;6.770;2023-06-10T11:10:41;6.15;;;4.70;;
21326;SDS011;10822;51.532;6.770;2023-06-10T11:13:16;5.45;;;4.70;;
21326;SDS011;10822;51.532;6.770;2023-06-10T11:26:13;5.75;;;4.20;;
21326;SDS011;10822;51.532;6.770;2023-06-10T11:28:39;7.32;;;4.15;;
21326;SDS011;10822;51.532;6.770;2023-06-10T11:31:05;7.15;;;4.28;;
21326;SDS011;10822;51.532;6.770;2023-06-10T11:33:31;4.88;;;4.10;;
21326;SDS011;10822;51.532;6.770;2023-06-10T11:35:57;7.18;;;4.30;;
21326;SDS011;10822;51.532;6.770;2023-06-10T11:38:24;5.22;;;4.40;;
21326;SDS011;10822;51.532;6.770;2023-06-10T11:40:53;4.72;;;4.20;;
21326;SDS011;10822;51.532;6.770;2023-06-10T11:43:19;4.55;;;4.00;;
21326;SDS011;10822;51.532;6.770;2023-06-10T11:45:45;4.90;;;3.95;;
21326;SDS011;10822;51.532;6.770;2023-06-10T11:48:14;5.40;;;4.78;;
21326;SDS011;10822;51.532;6.770;2023-06-10T11:50:40;9.90;;;6.72;;
21326;SDS011;10822;51.532;6.770;2023-06-10T11:53:07;8.15;;;6.25;;
21326;SDS011;10822;51.532;6.770;2023-06-10T11:55:44;7.07;;;5.50;;
21326;SDS011;10822;51.532;6.770;2023-06-10T12:00:52;6.45;;;5.75;;
21326;SDS011;10822;51.532;6.770;2023-06-10T12:03:19;5.78;;;5.15;;
21326;SDS011;10822;51.532;6.770;2023-06-10T12:05:58;5.80;;;4.85;;
21326;SDS011;10822;51.532;6.770;2023-06-10T12:08:25;5.68;;;4.43;;
21326;SDS011;10822;51.532;6.770;2023-06-10T12:10:51;5.57;;;4.32;;
21326;SDS011;10822;51.532;6.770;2023-06-10T12:13:17;8.13;;;5.22;;
21326;SDS011;10822;51.532;6.770;2023-06-10T12:15:43;8.35;;;5.60;;
21326;SDS011;10822;51.532;6.770;2023-06-10T12:18:20;6.47;;;5.43;;
21326;SDS011;10822;51.532;6.770;2023-06-10T12:20:46;9.02;;;4.43;;
21326;SDS011;10822;51.532;6.770;2023-06-10T12:23:13;9.27;;;7.60;;
21326;SDS011;10822;51.532;6.770;2023-06-10T12:25:42;6.30;;;5.22;;
21326;SDS011;10822;51.532;6.770;2023-06-10T12:28:14;7.38;;;5.18;;
21326;SDS011;10822;51.532;6.770;2023-06-10T12:30:42;6.75;;;5.00;;
21326;SDS011;10822;51.532;6.770;2023-06-10T12:33:18;6.03;;;4.97;;
21326;SDS011;10822;51.532;6.770;2023-06-10T12:35:50;10.15;;;6.95;;
21326;SDS011;10822;51.532;6.770;2023-06-10T12:38:23;5.82;;;5.22;;
21326;SDS011;10822;51.532;6.770;2023-06-10T12:40:52;5.65;;;4.72;;
21326;SDS011;10822;51.532;6.770;2023-06-10T12:43:21;5.90;;;4.38;;
21326;SDS011;10822;51.532;6.770;2023-06-10T12:45:47;5.50;;;4.65;;
21326;SDS011;10822;51.532;6.770;2023-06-10T12:48:23;5.95;;;5.15;;
21326;SDS011;10822;51.532;6.770;2023-06-10T12:50:53;4.97;;;4.20;;
21326;SDS011;10822;51.532;6.770;2023-06-10T12:53:19;6.75;;;5.20;;
21326;SDS011;10822;51.532;6.770;2023-06-10T12:55:46;6.75;;;4.88;;
21326;SDS011;10822;51.532;6.770;2023-06-10T12:58:12;11.65;;;5.43;;
21326;SDS011;10822;51.532;6.770;2023-06-10T13:00:38;7.28;;;5.00;;
21326;SDS011;10822;51.532;6.770;2023-06-10T13:03:05;5.03;;;4.30;;
21326;SDS011;10822;51.532;6.770;2023-06-10T13:05:32;5.18;;;4.68;;
21326;SDS011;10822;51.532;6.770;2023-06-10T13:07:58;5.05;;;4.55;;
21326;SDS011;10822;51.532;6.770;2023-06-10T13:10:24;4.68;;;4.22;;
21326;SDS011;10822;51.532;6.770;2023-06-10T13:12:51;5.70;;;4.38;;
21326;SDS011;10822;51.532;6.770;2023-06-10T13:15:17;5.88;;;4.60;;
21326;SDS011;10822;51.532;6.770;2023-06-10T13:17:44;4.55;;;4.15;;
21326;SDS011;10822;51.532;6.770;2023-06-10T13:20:14;5.18;;;4.68;;
21326;SDS011;10822;51.532;6.770;2023-06-10T13:22:41;5.78;;;4.43;;
21326;SDS011;10822;51.532;6.770;2023-06-10T13:25:07;5.00;;;4.25;;
21326;SDS011;10822;51.532;6.770;2023-06-10T13:27:34;5.07;;;4.43;;
21326;SDS011;10822;51.532;6.770;2023-06-10T13:30:00;5.03;;;4.40;;
21326;SDS011;10822;51.532;6.770;2023-06-10T13:32:26;6.55;;;4.13;;
21326;SDS011;10822;51.532;6.770;2023-06-10T13:34:52;5.97;;;4.68;;
21326;SDS011;10822;51.532;6.770;2023-06-10T13:37:19;5.38;;;4.47;;
21326;SDS011;10822;51.532;6.770;2023-06-10T13:39:45;15.15;;;6.70;;
21326;SDS011;10822;51.532;6.770;2023-06-10T13:42:13;5.93;;;4.90;;
21326;SDS011;10822;51.532;6.770;2023-06-10T13:44:40;6.30;;;4.63;;
21326;SDS011;10822;51.532;6.770;2023-06-10T13:47:06;4.72;;;4.22;;
21326;SDS011;10822;51.532;6.770;2023-06-10T13:49:32;5.53;;;4.55;;
21326;SDS011;10822;51.532;6.770;2023-06-10T13:51:58;5.18;;;4.38;;
21326;SDS011;10822;51.532;6.770;2023-06-10T13:54:24;7.13;;;4.68;;
21326;SDS011;10822;51.532;6.770;2023-06-10T13:56:50;6.00;;;5.00;;
21326;SDS011;10822;51.532;6.770;2023-06-10T13:59:16;4.93;;;4.38;;
21326;SDS011;10822;51.532;6.770;2023-06-10T14:01:42;5.13;;;4.63;;
21326;SDS011;10822;51.532;6.770;2023-06-10T14:04:08;7.65;;;4.50;;
21326;SDS011;10822;51.532;6.770;2023-06-10T14:06:34;5.60;;;4.68;;
21326;SDS011;10822;51.532;6.770;2023-06-10T14:09:00;4.80;;;4.32;;
21326;SDS011;10822;51.532;6.770;2023-06-10T14:11:26;6.43;;;4.80;;
21326;SDS011;10822;51.532;6.770;2023-06-10T14:13:52;7.45;;;5.18;;
21326;SDS011;10822;51.532;6.770;2023-06-10T14:16:18;5.47;;;4.47;;
21326;SDS011;10822;51.532;6.770;2023-06-10T14:18:44;5.78;;;5.25;;
21326;SDS011;10822;51.532;6.770;2023-06-10T14:21:10;6.00;;;4.75;;
21326;SDS011;10822;51.532;6.770;2023-06-10T14:23:36;6.53;;;4.95;;
21326;SDS011;10822;51.532;6.770;2023-06-10T14:26:02;7.00;;;4.45;;
21326;SDS011;10822;51.532;6.770;2023-06-10T14:28:30;5.38;;;4.50;;
21326;SDS011;10822;51.532;6.770;2023-06-10T14:30:56;5.50;;;4.60;;
21326;SDS011;10822;51.532;6.770;2023-06-10T14:33:22;5.25;;;4.30;;
21326;SDS011;10822;51.532;6.770;2023-06-10T14:35:49;5.22;;;4.50;;
21326;SDS011;10822;51.532;6.770;2023-06-10T14:38:15;5.20;;;4.30;;
21326;SDS011;10822;51.532;6.770;2023-06-10T14:40:41;4.72;;;4.25;;
21326;SDS011;10822;51.532;6.770;2023-06-10T14:43:07;5.85;;;4.30;;
21326;SDS011;10822;51.532;6.770;2023-06-10T14:45:35;5.78;;;4.38;;
21326;SDS011;10822;51.532;6.770;2023-06-10T14:48:02;5.85;;;4.03;;
21326;SDS011;10822;51.532;6.770;2023-06-10T14:50:28;4.97;;;4.57;;
21326;SDS011;10822;51.532;6.770;2023-06-10T14:52:54;5.57;;;4.18;;
21326;SDS011;10822;51.532;6.770;2023-06-10T14:55:20;5.10;;;4.50;;
21326;SDS011;10822;51.532;6.770;2023-06-10T14:57:47;6.05;;;4.47;;
21326;SDS011;10822;51.532;6.770;2023-06-10T15:00:13;6.03;;;4.22;;
21326;SDS011;10822;51.532;6.770;2023-06-10T15:02:41;4.63;;;4.00;;
21326;SDS011;10822;51.532;6.770;2023-06-10T15:05:07;6.00;;;4.43;;
21326;SDS011;10822;51.532;6.770;2023-06-10T15:07:34;5.55;;;4.30;;
21326;SDS011;10822;51.532;6.770;2023-06-10T15:10:00;6.78;;;4.45;;
21326;SDS011;10822;51.532;6.770;2023-06-10T15:12:25;7.78;;;4.45;;